createdAt,value
2022-08-20T00:01:17.418Z,19.17
2022-08-20T00:03:20.657Z,18.38
2022-08-20T00:05:27.834Z,17.92
2022-08-20T00:07:29.547Z,20.92
2022-08-20T00:09:30.842Z,19.42
2022-08-20T00:11:37.740Z,21.40
2022-08-20T00:13:42.468Z,21.05
2022-08-20T00:15:44.004Z,20.23
2022-08-20T00:17:48.221Z,19.02
2022-08-20T00:19:49.779Z,21.02
2022-08-20T00:21:51.178Z,19.30
2022-08-20T00:23:57.930Z,18.65
2022-08-20T00:25:59.236Z,19.90
2022-08-20T00:28:05.711Z,17.50
2022-08-20T00:30:08.307Z,15.57
2022-08-20T00:32:09.799Z,16.05
2022-08-20T00:34:11.159Z,17.35
2022-08-20T00:36:12.510Z,20.05
2022-08-20T00:38:13.884Z,17.48
2022-08-20T00:40:22.225Z,17.40
2022-08-20T00:42:25.310Z,17.65
2022-08-20T00:44:27.206Z,15.82
2022-08-20T00:46:31.878Z,18.20
2022-08-20T00:48:35.016Z,21.77
2022-08-20T00:50:37.222Z,22.08
2022-08-20T00:52:39.883Z,21.52
2022-08-20T00:54:53.776Z,24.17
2022-08-20T00:57:07.285Z,19.35
2022-08-20T00:59:11.282Z,18.67
2022-08-20T01:01:13.692Z,18.85
2022-08-20T01:03:17.773Z,19.33
2022-08-20T01:05:19.209Z,19.25
2022-08-20T01:07:21.262Z,17.95
2022-08-20T01:09:33.494Z,18.10
2022-08-20T01:11:44.647Z,20.08
2022-08-20T01:13:46.921Z,20.98
2022-08-20T01:15:50.365Z,21.70
2022-08-20T01:17:52.992Z,21.67
2022-08-20T01:20:01.282Z,24.13
2022-08-20T01:22:23.600Z,19.83
2022-08-20T01:24:31.911Z,17.80
2022-08-20T01:26:39.101Z,20.48
2022-08-20T01:28:45.618Z,21.15
2022-08-20T01:30:46.919Z,20.52
2022-08-20T01:32:48.281Z,18.60
2022-08-20T01:34:49.607Z,25.33
2022-08-20T01:36:52.488Z,21.90
2022-08-20T01:38:54.103Z,20.83
2022-08-20T01:41:14.791Z,19.35
2022-08-20T01:43:17.210Z,21.20
2022-08-20T01:45:18.655Z,19.27
2022-08-20T01:47:22.247Z,21.35
2022-08-20T01:49:25.708Z,19.30
2022-08-20T01:51:29.311Z,18.05
2022-08-20T01:53:33.782Z,18.67
2022-08-20T01:55:35.142Z,17.17
2022-08-20T01:57:37.168Z,19.85
2022-08-20T01:59:38.512Z,20.35
2022-08-20T02:01:45.933Z,18.10
2022-08-20T02:03:47.955Z,18.67
2022-08-20T02:05:49.318Z,19.50
2022-08-20T02:07:50.791Z,16.80
2022-08-20T02:09:52.701Z,19.25
2022-08-20T02:11:54.201Z,19.52
2022-08-20T02:13:56.390Z,18.98
2022-08-20T02:15:57.768Z,18.80
2022-08-20T02:17:59.113Z,19.63
2022-08-20T02:20:03.979Z,18.92
2022-08-20T02:22:15.909Z,21.05
2022-08-20T02:24:17.691Z,18.83
2022-08-20T02:26:19.262Z,22.17
2022-08-20T02:28:20.827Z,22.00
2022-08-20T02:30:28.272Z,20.90
2022-08-20T02:32:33.838Z,20.13
2022-08-20T02:34:36.079Z,23.08
2022-08-20T02:36:38.831Z,20.08
2022-08-20T02:38:40.974Z,24.27
2022-08-20T02:40:44.116Z,20.27
2022-08-20T02:42:45.480Z,19.10
2022-08-20T02:44:46.800Z,21.33
2022-08-20T02:46:51.839Z,19.50
2022-08-20T02:48:53.401Z,19.27
2022-08-20T02:50:56.743Z,20.73
2022-08-20T02:52:58.073Z,19.77
2022-08-20T02:54:59.385Z,19.92
2022-08-20T02:57:00.853Z,20.08
2022-08-20T02:59:02.388Z,18.15
2022-08-20T03:01:06.280Z,20.35
2022-08-20T03:03:10.975Z,19.35
2022-08-20T03:05:12.975Z,21.35
2022-08-20T03:07:14.513Z,18.25
2022-08-20T03:09:15.918Z,20.85
2022-08-20T03:11:17.451Z,21.95
2022-08-20T03:13:19.599Z,17.70
2022-08-20T03:15:21.024Z,17.92
2022-08-20T03:17:22.462Z,19.83
2022-08-20T03:19:23.998Z,16.40
2022-08-20T03:21:26.485Z,17.25
2022-08-20T03:23:27.943Z,15.13
2022-08-20T03:25:29.502Z,15.70
2022-08-20T03:27:32.645Z,15.48
2022-08-20T03:29:37.900Z,16.08
2022-08-20T03:31:39.639Z,16.67
2022-08-20T03:33:48.942Z,14.90
2022-08-20T03:35:55.059Z,15.98
2022-08-20T03:37:56.794Z,17.00
2022-08-20T03:39:58.495Z,14.80
2022-08-20T03:41:59.839Z,14.75
2022-08-20T03:44:06.953Z,14.38
2022-08-20T03:46:23.363Z,14.57
2022-08-20T03:48:25.631Z,15.13
2022-08-20T03:50:28.972Z,16.15
2022-08-20T03:52:30.300Z,18.83
2022-08-20T03:54:32.126Z,19.10
2022-08-20T03:56:33.588Z,18.85
2022-08-20T03:58:36.474Z,21.42
2022-08-20T04:00:42.848Z,18.27
2022-08-20T04:02:44.131Z,22.23
2022-08-20T04:04:45.488Z,19.00
2022-08-20T04:06:50.544Z,19.48
2022-08-20T04:08:54.046Z,19.90
2022-08-20T04:10:57.603Z,20.45
2022-08-20T04:12:59.336Z,20.45
2022-08-20T04:15:01.051Z,18.85
2022-08-20T04:17:10.208Z,16.75
2022-08-20T04:19:11.653Z,17.75
2022-08-20T04:21:13.077Z,18.15
2022-08-20T04:23:14.867Z,16.63
2022-08-20T04:25:24.515Z,17.90
2022-08-20T04:27:33.025Z,17.13
2022-08-20T04:29:35.612Z,17.63
2022-08-20T04:31:37.042Z,18.85
2022-08-20T04:33:38.399Z,17.50
2022-08-20T04:35:39.720Z,19.10
2022-08-20T04:37:41.474Z,17.65
2022-08-20T04:39:42.898Z,15.35
2022-08-20T04:41:44.322Z,17.52
2022-08-20T04:43:45.675Z,15.50
2022-08-20T04:45:47.040Z,13.23
2022-08-20T04:47:49.544Z,13.63
2022-08-20T04:49:50.885Z,13.60
2022-08-20T04:51:52.921Z,11.82
2022-08-20T04:53:54.759Z,12.15
2022-08-20T04:55:57.106Z,10.20
2022-08-20T04:58:05.669Z,11.88
2022-08-20T05:00:10.351Z,9.50
2022-08-20T05:02:12.308Z,10.18
2022-08-20T05:04:17.809Z,12.43
2022-08-20T05:06:19.667Z,11.93
2022-08-20T05:08:23.242Z,12.50
2022-08-20T05:10:25.320Z,12.40
2022-08-20T05:12:26.720Z,9.98
2022-08-20T05:14:29.433Z,11.15
2022-08-20T05:16:31.289Z,12.38
2022-08-20T05:18:33.508Z,14.13
2022-08-20T05:20:38.790Z,13.70
2022-08-20T05:22:40.178Z,13.25
2022-08-20T05:24:41.888Z,15.20
2022-08-20T05:26:43.220Z,12.98
2022-08-20T05:28:54.124Z,14.38
2022-08-20T05:31:01.394Z,15.57
2022-08-20T05:33:04.223Z,13.00
2022-08-20T05:35:07.687Z,12.30
2022-08-20T05:37:09.944Z,12.63
2022-08-20T05:39:13.647Z,13.98
2022-08-20T05:41:28.916Z,14.73
2022-08-20T05:43:33.741Z,13.15
2022-08-20T05:45:37.533Z,13.93
2022-08-20T05:47:42.812Z,16.63
2022-08-20T05:49:46.330Z,16.30
2022-08-20T05:51:48.689Z,15.98
2022-08-20T05:53:50.008Z,17.80
2022-08-20T05:55:52.174Z,17.00
2022-08-20T05:57:57.287Z,18.13
2022-08-20T05:59:59.730Z,17.98
2022-08-20T06:02:01.296Z,17.63
2022-08-20T06:04:20.997Z,16.63
2022-08-20T06:06:45.173Z,16.40
2022-08-20T06:08:43.683Z,18.90
2022-08-20T06:10:45.067Z,16.95
2022-08-20T06:12:47.014Z,16.52
2022-08-20T06:14:48.339Z,18.23
2022-08-20T06:16:57.899Z,18.10
2022-08-20T06:19:02.662Z,18.23
2022-08-20T06:21:04.289Z,16.77
2022-08-20T06:23:06.015Z,17.00
2022-08-20T06:25:07.734Z,13.90
2022-08-20T06:27:12.652Z,16.00
2022-08-20T06:29:15.732Z,15.23
2022-08-20T06:31:17.238Z,14.70
2022-08-20T06:33:18.551Z,15.13
2022-08-20T06:35:21.305Z,15.45
2022-08-20T06:37:28.168Z,14.35
2022-08-20T06:39:32.563Z,14.93
2022-08-20T06:41:35.715Z,15.20
2022-08-20T06:43:37.808Z,15.68
2022-08-20T06:45:39.428Z,17.13
2022-08-20T06:47:41.826Z,16.83
2022-08-20T06:49:43.521Z,14.82
2022-08-20T06:51:45.547Z,13.88
2022-08-20T06:53:51.352Z,15.20
2022-08-20T06:55:57.921Z,12.85
2022-08-20T06:58:03.863Z,13.15
2022-08-20T07:00:06.116Z,13.40
2022-08-20T07:02:07.996Z,11.98
2022-08-20T07:04:09.368Z,12.68
2022-08-20T07:06:11.127Z,10.57
2022-08-20T07:08:13.806Z,10.82
2022-08-20T07:10:16.358Z,8.20
2022-08-20T07:12:17.876Z,6.38
2022-08-20T07:14:19.767Z,5.28
2022-08-20T07:16:21.088Z,4.03
2022-08-20T07:18:27.946Z,3.22
2022-08-20T07:20:31.587Z,4.05
2022-08-20T07:22:36.964Z,3.03
2022-08-20T07:24:41.143Z,2.42
2022-08-20T07:26:43.848Z,3.38
2022-08-20T07:28:45.218Z,3.70
2022-08-20T07:31:13.692Z,2.78
2022-08-20T07:33:15.798Z,3.00
2022-08-20T07:35:18.590Z,3.97
2022-08-20T07:37:20.782Z,2.08
2022-08-20T07:39:22.209Z,1.63
2022-08-20T07:41:23.870Z,1.50
2022-08-20T07:43:25.320Z,1.23
2022-08-20T07:45:27.329Z,2.00
2022-08-20T07:47:28.724Z,1.33
2022-08-20T07:49:30.060Z,1.85
2022-08-20T07:51:31.411Z,2.47
2022-08-20T07:53:35.892Z,1.75
2022-08-20T07:55:37.730Z,1.45
2022-08-20T07:57:39.205Z,2.00
2022-08-20T07:59:40.531Z,0.75
2022-08-20T08:01:41.842Z,2.08
2022-08-20T08:03:49.760Z,0.85
2022-08-20T08:05:51.995Z,1.35
2022-08-20T08:07:53.307Z,2.20
2022-08-20T08:09:55.443Z,1.73
2022-08-20T08:11:57.790Z,1.08
2022-08-20T08:13:59.744Z,1.52
2022-08-20T08:16:02.051Z,1.80
2022-08-20T08:18:08.041Z,0.90
2022-08-20T08:20:09.651Z,0.80
2022-08-20T08:22:12.753Z,1.00
2022-08-20T08:24:20.275Z,1.10
2022-08-20T08:26:23.126Z,1.15
2022-08-20T08:28:25.151Z,2.00
2022-08-20T08:30:28.316Z,4.10
2022-08-20T08:32:31.926Z,2.45
2022-08-20T08:34:34.154Z,4.07
2022-08-20T08:36:39.126Z,0.98
2022-08-20T08:38:42.883Z,2.33
2022-08-20T08:40:44.578Z,1.05
2022-08-20T08:42:48.542Z,1.55
2022-08-20T08:44:50.842Z,2.42
2022-08-20T08:46:56.780Z,2.67
2022-08-20T08:49:01.498Z,1.60
2022-08-20T08:51:04.396Z,2.53
2022-08-20T08:53:05.930Z,3.10
2022-08-20T08:55:15.942Z,1.35
2022-08-20T08:57:17.408Z,0.93
2022-08-20T08:59:19.845Z,0.50
2022-08-20T09:01:53.970Z,1.48
2022-08-20T09:03:55.144Z,0.80
2022-08-20T09:06:01.227Z,0.88
2022-08-20T09:08:03.764Z,0.95
2022-08-20T09:10:06.579Z,1.13
2022-08-20T09:12:09.781Z,0.68
2022-08-20T09:14:11.092Z,0.95
2022-08-20T09:16:12.608Z,0.47
2022-08-20T09:18:13.956Z,0.60
2022-08-20T09:20:15.391Z,1.88
2022-08-20T09:22:19.035Z,1.00
2022-08-20T09:24:21.458Z,0.70
2022-08-20T09:26:22.985Z,3.05
2022-08-20T09:28:32.327Z,0.63
2022-08-20T09:30:36.250Z,1.58
2022-08-20T09:32:39.053Z,1.92
2022-08-20T09:34:41.817Z,1.02
2022-08-20T09:36:43.122Z,0.70
2022-08-20T09:38:46.573Z,0.70
2022-08-20T09:40:47.977Z,1.30
2022-08-20T09:42:50.626Z,1.02
2022-08-20T09:44:52.505Z,0.88
2022-08-20T09:46:53.809Z,0.40
2022-08-20T09:48:55.465Z,0.70
2022-08-20T09:50:57.440Z,0.80
2022-08-20T09:52:59.699Z,0.55
2022-08-20T09:55:02.143Z,2.95
2022-08-20T09:57:04.899Z,1.48
2022-08-20T09:59:06.468Z,1.27
2022-08-20T10:01:13.633Z,1.20
2022-08-20T10:03:16.205Z,2.85
2022-08-20T10:05:17.559Z,3.65
2022-08-20T10:07:20.579Z,4.15
2022-08-20T10:09:22.160Z,4.32
2022-08-20T10:11:23.446Z,3.33
2022-08-20T10:13:26.366Z,4.35
2022-08-20T10:15:28.144Z,4.18
2022-08-20T10:17:29.464Z,4.18
2022-08-20T10:19:34.087Z,1.77
2022-08-20T10:21:38.679Z,2.22
2022-08-20T10:23:40.700Z,1.23
2022-08-20T10:25:44.974Z,2.53
2022-08-20T10:27:46.340Z,3.13
2022-08-20T10:29:47.714Z,2.40
2022-08-20T10:31:49.281Z,1.77
2022-08-20T10:33:50.595Z,1.67
2022-08-20T10:35:53.253Z,1.63
2022-08-20T10:38:01.150Z,2.92
2022-08-20T10:40:02.711Z,1.50
2022-08-20T10:42:04.070Z,1.55
2022-08-20T10:44:05.874Z,2.08
2022-08-20T10:46:07.397Z,1.25
2022-08-20T10:48:08.734Z,1.67
2022-08-20T10:50:13.699Z,1.75
2022-08-20T10:52:15.044Z,0.65
2022-08-20T10:54:16.372Z,0.80
2022-08-20T10:56:17.660Z,0.98
2022-08-20T10:58:19.006Z,2.33
2022-08-20T11:00:24.475Z,0.50
2022-08-20T11:02:26.556Z,1.02
2022-08-20T11:04:28.088Z,0.65
2022-08-20T11:06:29.552Z,0.95
2022-08-20T11:08:33.830Z,1.95
2022-08-20T11:10:38.243Z,1.10
2022-08-20T11:12:40.032Z,1.73
2022-08-20T11:14:46.379Z,0.80
2022-08-20T11:16:47.796Z,0.93
2022-08-20T11:18:49.143Z,0.98
2022-08-20T11:20:50.496Z,1.33
2022-08-20T11:22:52.233Z,0.63
2022-08-20T11:24:53.836Z,0.88
2022-08-20T11:26:55.292Z,1.92
2022-08-20T11:28:56.606Z,1.40
2022-08-20T11:30:57.932Z,1.70
2022-08-20T11:33:00.018Z,1.30
2022-08-20T11:35:09.969Z,1.08
2022-08-20T11:37:23.963Z,1.52
2022-08-20T11:39:25.763Z,0.80
2022-08-20T11:41:27.088Z,1.55
2022-08-20T11:43:28.447Z,1.13
2022-08-20T11:45:29.903Z,0.73
2022-08-20T11:47:39.070Z,0.70
2022-08-20T11:49:40.362Z,2.13
2022-08-20T11:51:50.033Z,0.50
2022-08-20T11:53:51.552Z,2.25
2022-08-20T11:55:53.289Z,2.08
2022-08-20T11:57:54.604Z,1.55
2022-08-20T12:00:02.535Z,0.60
2022-08-20T12:02:04.777Z,0.90
2022-08-20T12:04:07.470Z,1.13
2022-08-20T12:06:08.945Z,1.23
2022-08-20T12:08:10.875Z,0.80
2022-08-20T12:10:29.642Z,0.50
2022-08-20T12:12:30.971Z,0.43
2022-08-20T12:14:34.060Z,1.60
2022-08-20T12:16:35.378Z,0.52
2022-08-20T12:18:36.915Z,0.40
2022-08-20T12:20:38.270Z,0.98
2022-08-20T12:22:39.727Z,1.83
2022-08-20T12:24:41.105Z,0.73
2022-08-20T12:26:42.481Z,1.05
2022-08-20T12:28:43.820Z,0.55
2022-08-20T12:30:45.152Z,1.58
2022-08-20T12:32:46.796Z,0.50
2022-08-20T12:34:48.343Z,0.47
2022-08-20T12:36:49.661Z,1.00
2022-08-20T12:38:51.673Z,1.00
2022-08-20T12:40:53.076Z,0.80
2022-08-20T12:42:54.802Z,1.30
2022-08-20T12:44:59.327Z,1.90
2022-08-20T12:47:11.208Z,0.60
2022-08-20T12:49:12.545Z,0.50
2022-08-20T12:51:13.875Z,3.17
2022-08-20T12:53:15.287Z,1.75
2022-08-20T12:55:18.623Z,2.03
2022-08-20T12:57:24.908Z,2.88
2022-08-20T12:59:26.507Z,0.55
2022-08-20T13:01:27.922Z,0.45
2022-08-20T13:03:29.437Z,0.55
2022-08-20T13:05:36.493Z,0.30
2022-08-20T13:07:38.849Z,0.70
2022-08-20T13:09:40.912Z,0.57
2022-08-20T13:11:42.307Z,2.42
2022-08-20T13:13:46.407Z,1.48
2022-08-20T13:15:50.820Z,0.82
2022-08-20T13:17:55.614Z,0.50
2022-08-20T13:19:56.963Z,0.38
2022-08-20T13:21:58.359Z,1.77
2022-08-20T13:24:00.489Z,0.60
2022-08-20T13:26:02.013Z,0.60
2022-08-20T13:28:04.374Z,1.63
2022-08-20T13:30:07.391Z,0.93
2022-08-20T13:32:10.510Z,0.40
2022-08-20T13:34:12.338Z,0.38
2022-08-20T13:36:13.791Z,0.70
2022-08-20T13:38:15.144Z,1.15
2022-08-20T13:40:16.972Z,1.20
2022-08-20T13:42:18.372Z,1.27
2022-08-20T13:44:19.769Z,0.45
2022-08-20T13:46:21.054Z,0.52
2022-08-20T13:48:22.375Z,0.40
2022-08-20T13:50:24.845Z,0.55
2022-08-20T13:52:27.008Z,1.42
2022-08-20T13:54:30.217Z,2.78
2022-08-20T13:56:32.011Z,1.38
2022-08-20T13:58:33.353Z,0.85
2022-08-20T14:00:35.702Z,0.40
2022-08-20T14:02:37.164Z,0.80
2022-08-20T14:04:38.802Z,1.08
2022-08-20T14:06:40.093Z,0.82
2022-08-20T14:08:41.401Z,0.50
2022-08-20T14:10:44.044Z,0.68
2022-08-20T14:12:45.893Z,1.20
2022-08-20T14:14:47.271Z,2.42
2022-08-20T14:16:48.763Z,1.05
2022-08-20T14:18:52.858Z,1.17
2022-08-20T14:20:54.403Z,0.80
2022-08-20T14:22:56.049Z,1.20
2022-08-20T14:24:59.483Z,1.67
2022-08-20T14:27:02.171Z,1.08
2022-08-20T14:29:03.615Z,0.77
2022-08-20T14:31:05.013Z,0.95
2022-08-20T14:33:06.789Z,0.80
2022-08-20T14:35:09.328Z,0.70
2022-08-20T14:37:10.617Z,1.35
2022-08-20T14:39:11.918Z,1.60
2022-08-20T14:41:13.195Z,0.70
2022-08-20T14:43:14.491Z,3.05
2022-08-20T14:45:16.347Z,2.65
2022-08-20T14:47:23.353Z,1.00
2022-08-20T14:49:24.758Z,0.60
2022-08-20T14:51:26.108Z,0.60
2022-08-20T14:53:27.570Z,0.52
2022-08-20T14:55:31.120Z,1.33
2022-08-20T14:57:32.797Z,1.38
2022-08-20T14:59:34.370Z,1.05
2022-08-20T15:01:36.028Z,0.75
2022-08-20T15:03:37.398Z,0.85
2022-08-20T15:05:39.981Z,0.60
2022-08-20T15:07:42.851Z,0.57
2022-08-20T15:09:44.227Z,0.90
2022-08-20T15:11:46.005Z,0.77
2022-08-20T15:13:47.298Z,1.33
2022-08-20T15:15:48.648Z,2.10
2022-08-20T15:17:51.527Z,1.70
2022-08-20T15:19:53.502Z,0.80
2022-08-20T15:21:54.835Z,1.00
2022-08-20T15:23:56.332Z,0.43
2022-08-20T15:25:57.647Z,1.80
2022-08-20T15:28:01.838Z,1.52
2022-08-20T15:30:08.325Z,1.65
2022-08-20T15:32:09.695Z,1.48
2022-08-20T15:34:10.972Z,2.17
2022-08-20T15:36:19.896Z,2.00
2022-08-20T15:38:21.290Z,1.05
2022-08-20T15:40:27.754Z,1.02
2022-08-20T15:42:32.538Z,0.77
2022-08-20T15:44:34.913Z,1.33
2022-08-20T15:46:39.445Z,0.70
2022-08-20T15:48:43.200Z,1.85
2022-08-20T15:50:44.539Z,0.52
2022-08-20T15:52:46.086Z,1.00
2022-08-20T15:54:47.586Z,1.35
2022-08-20T15:57:02.784Z,1.10
2022-08-20T15:59:13.416Z,0.80
2022-08-20T16:01:25.364Z,1.08
2022-08-20T16:03:41.293Z,1.42
2022-08-20T16:05:48.170Z,2.22
2022-08-20T16:08:18.538Z,1.65
2022-08-20T16:10:26.042Z,1.23
2022-08-20T16:12:32.147Z,1.00
2022-08-20T16:14:44.816Z,1.10
2022-08-20T16:16:47.495Z,1.88
2022-08-20T16:18:51.009Z,2.60
2022-08-20T16:20:53.480Z,1.40
2022-08-20T16:22:55.382Z,1.90
2022-08-20T16:24:58.180Z,1.38
2022-08-20T16:27:18.266Z,1.10
2022-08-20T16:29:26.213Z,1.65
2022-08-20T16:31:32.696Z,2.22
2022-08-20T16:33:53.456Z,0.95
2022-08-20T16:35:59.237Z,2.28
2022-08-20T16:38:06.772Z,0.82
2022-08-20T16:40:08.252Z,1.45
2022-08-20T16:42:10.166Z,1.55
2022-08-20T16:44:14.986Z,1.70
2022-08-20T16:46:21.767Z,2.30
2022-08-20T16:48:29.302Z,1.60
2022-08-20T16:50:34.701Z,1.27
2022-08-20T16:52:36.026Z,1.20
2022-08-20T16:54:37.347Z,1.83
2022-08-20T16:56:41.482Z,1.23
2022-08-20T16:58:45.034Z,1.35
2022-08-20T17:00:46.501Z,0.80
2022-08-20T17:03:18.690Z,1.35
2022-08-20T17:05:35.659Z,3.63
2022-08-20T17:07:46.328Z,2.88
2022-08-20T17:09:47.941Z,2.83
2022-08-20T17:11:51.766Z,1.50
2022-08-20T17:14:02.279Z,2.28
2022-08-20T17:16:05.783Z,1.90
2022-08-20T17:18:23.687Z,1.73
2022-08-20T17:20:29.283Z,1.40
2022-08-20T17:22:39.367Z,1.73
2022-08-20T17:24:40.680Z,1.23
2022-08-20T17:27:05.167Z,1.50
2022-08-20T17:29:17.589Z,1.10
2022-08-20T17:31:39.443Z,2.60
2022-08-20T17:33:40.876Z,1.13
2022-08-20T17:35:44.161Z,1.70
2022-08-20T17:37:49.981Z,2.53
2022-08-20T17:40:07.961Z,2.08
2022-08-20T17:42:13.896Z,1.02
2022-08-20T17:44:21.390Z,1.33
2022-08-20T17:46:23.835Z,1.65
2022-08-20T17:48:29.827Z,1.80
2022-08-20T17:50:35.856Z,1.00
2022-08-20T17:52:43.878Z,1.67
2022-08-20T17:54:46.620Z,1.92
2022-08-20T17:56:52.146Z,1.33
2022-08-20T17:58:58.135Z,2.58
2022-08-20T18:01:04.903Z,1.08
2022-08-20T18:03:10.651Z,1.45
2022-08-20T18:05:17.944Z,2.55
2022-08-20T18:07:19.380Z,1.50
2022-08-20T18:09:38.080Z,1.80
2022-08-20T18:11:43.171Z,2.15
2022-08-20T18:14:16.800Z,1.83
2022-08-20T18:16:41.478Z,1.25
2022-08-20T18:18:56.726Z,0.98
2022-08-20T18:21:12.577Z,1.52
2022-08-20T18:23:13.981Z,1.98
2022-08-20T18:25:18.846Z,1.48
2022-08-20T18:27:22.050Z,2.30
2022-08-20T18:29:28.391Z,1.70
2022-08-20T18:31:32.192Z,3.00
2022-08-20T18:33:35.528Z,2.72
2022-08-20T18:35:37.505Z,2.25
2022-08-20T18:37:38.934Z,2.35
2022-08-20T18:39:41.878Z,3.03
2022-08-20T18:42:00.067Z,3.55
2022-08-20T18:44:02.684Z,2.28
2022-08-20T18:46:11.631Z,3.13
2022-08-20T18:48:21.167Z,3.58
2022-08-20T18:50:47.528Z,3.50
2022-08-20T18:52:50.777Z,2.85
2022-08-20T18:54:54.045Z,1.95
2022-08-20T18:57:03.919Z,2.38
2022-08-20T18:59:08.172Z,3.67
2022-08-20T19:01:11.976Z,2.75
2022-08-20T19:03:16.069Z,2.72
2022-08-20T19:05:23.128Z,4.60
2022-08-20T19:07:26.723Z,3.95
2022-08-20T19:09:54.125Z,2.67
2022-08-20T19:11:55.611Z,2.28
2022-08-20T19:13:59.557Z,2.20
2022-08-20T19:16:07.166Z,2.40
2022-08-20T19:18:10.395Z,4.68
2022-08-20T19:20:16.706Z,3.25
2022-08-20T19:22:19.559Z,2.83
2022-08-20T19:24:31.113Z,2.75
2022-08-20T19:26:39.331Z,8.85
2022-08-20T19:28:51.982Z,12.25
2022-08-20T19:30:53.339Z,60.08
2022-08-20T19:32:54.701Z,26.52
2022-08-20T19:34:57.670Z,39.13
2022-08-20T19:37:04.549Z,19.65
2022-08-20T19:39:23.936Z,49.65
2022-08-20T19:41:31.423Z,44.00
2022-08-20T19:43:41.336Z,62.63
2022-08-20T19:45:50.081Z,35.65
2022-08-20T19:48:00.152Z,31.40
2022-08-20T19:50:12.077Z,14.77
2022-08-20T19:52:22.573Z,37.20
2022-08-20T19:54:26.813Z,23.95
2022-08-20T19:56:28.185Z,15.80
2022-08-20T19:58:31.046Z,20.00
2022-08-20T20:00:37.967Z,14.45
2022-08-20T20:02:41.399Z,21.55
2022-08-20T20:04:55.367Z,12.18
2022-08-20T20:07:00.191Z,7.60
2022-08-20T20:09:05.136Z,8.98
2022-08-20T20:11:06.815Z,5.47
2022-08-20T20:13:10.057Z,5.30
2022-08-20T20:15:11.488Z,5.65
2022-08-20T20:17:21.037Z,5.82
2022-08-20T20:19:27.502Z,2.67
2022-08-20T20:21:40.635Z,3.10
2022-08-20T20:23:50.210Z,2.05
2022-08-20T20:25:59.240Z,2.33
2022-08-20T20:28:21.276Z,2.88
2022-08-20T20:30:26.845Z,2.00
2022-08-20T20:32:28.967Z,3.38
2022-08-20T20:34:35.181Z,2.15
2022-08-20T20:36:41.702Z,1.52
2022-08-20T20:38:54.310Z,2.05
2022-08-20T20:40:57.248Z,2.13
2022-08-20T20:43:06.349Z,3.95
2022-08-20T20:45:19.874Z,26.52
2022-08-20T20:47:26.472Z,19.85
2022-08-20T20:49:30.418Z,25.13
2022-08-20T20:51:32.531Z,25.85
2022-08-20T20:53:53.279Z,31.75
2022-08-20T20:55:56.728Z,22.42
2022-08-20T20:57:58.702Z,27.52
2022-08-20T21:00:00.241Z,26.27
2022-08-20T21:02:02.316Z,18.85
2022-08-20T21:04:03.807Z,29.00
2022-08-20T21:06:05.230Z,27.05
2022-08-20T21:08:08.975Z,26.65
2022-08-20T21:10:10.329Z,21.58
2022-08-20T21:12:12.283Z,17.50
2022-08-20T21:14:14.197Z,17.20
2022-08-20T21:16:16.251Z,8.27
2022-08-20T21:18:17.673Z,4.40
2022-08-20T21:20:20.437Z,3.80
2022-08-20T21:22:21.903Z,7.88
2022-08-20T21:24:23.745Z,4.50
2022-08-20T21:26:25.444Z,5.00
2022-08-20T21:28:28.251Z,5.75
2022-08-20T21:30:31.235Z,8.90
2022-08-20T21:32:32.803Z,5.80
2022-08-20T21:34:34.142Z,4.78
2022-08-20T21:36:35.582Z,4.50
2022-08-20T21:38:37.180Z,2.97
2022-08-20T21:40:38.568Z,3.13
2022-08-20T21:42:42.747Z,3.22
2022-08-20T21:44:49.426Z,3.00
2022-08-20T21:46:52.106Z,5.07
2022-08-20T21:48:53.418Z,3.50
2022-08-20T21:50:54.709Z,3.75
2022-08-20T21:52:59.681Z,4.55
2022-08-20T21:55:01.770Z,4.28
2022-08-20T21:57:08.712Z,6.18
2022-08-20T21:59:10.241Z,4.22
2022-08-20T22:01:12.484Z,3.92
2022-08-20T22:03:15.216Z,5.63
2022-08-20T22:05:16.593Z,2.63
2022-08-20T22:07:17.978Z,3.13
2022-08-20T22:09:19.287Z,3.13
2022-08-20T22:11:20.711Z,3.63
2022-08-20T22:13:22.192Z,2.55
2022-08-20T22:15:23.556Z,2.08
2022-08-20T22:17:25.205Z,3.05
2022-08-20T22:19:26.552Z,3.10
2022-08-20T22:21:29.687Z,3.90
2022-08-20T22:23:32.711Z,2.40
2022-08-20T22:25:34.055Z,1.58
2022-08-20T22:27:35.766Z,4.22
2022-08-20T22:29:37.290Z,3.45
2022-08-20T22:31:40.456Z,2.45
2022-08-20T22:33:41.983Z,2.38
2022-08-20T22:35:46.798Z,3.40
2022-08-20T22:37:48.244Z,3.70
2022-08-20T22:39:49.590Z,2.22
2022-08-20T22:41:51.038Z,2.25
2022-08-20T22:43:57.172Z,3.28
2022-08-20T22:46:00.440Z,2.70
2022-08-20T22:48:02.235Z,3.40
2022-08-20T22:50:03.994Z,1.95
2022-08-20T22:52:05.865Z,2.90
2022-08-20T22:54:08.556Z,1.65
2022-08-20T22:56:19.820Z,2.70
2022-08-20T22:58:31.303Z,5.20
2022-08-20T23:00:33.224Z,3.10
2022-08-20T23:02:34.654Z,3.33
2022-08-20T23:04:36.408Z,6.13
2022-08-20T23:06:37.898Z,3.65
2022-08-20T23:08:39.950Z,3.75
2022-08-20T23:10:41.795Z,3.47
2022-08-20T23:12:43.116Z,2.95
2022-08-20T23:14:44.417Z,4.38
2022-08-20T23:16:47.455Z,2.47
2022-08-20T23:18:48.922Z,2.03
2022-08-20T23:20:51.862Z,3.05
2022-08-20T23:22:53.453Z,5.25
2022-08-20T23:24:59.996Z,3.03
2022-08-20T23:27:02.386Z,4.32
2022-08-20T23:29:03.692Z,3.35
2022-08-20T23:31:05.025Z,5.50
2022-08-20T23:33:06.341Z,2.80
2022-08-20T23:35:08.204Z,3.78
2022-08-20T23:37:09.713Z,3.03
2022-08-20T23:39:11.183Z,5.30
2022-08-20T23:41:12.692Z,3.78
2022-08-20T23:43:13.994Z,3.38
2022-08-20T23:45:15.629Z,6.15
2022-08-20T23:47:19.823Z,2.40
2022-08-20T23:49:21.143Z,4.97
2022-08-20T23:51:22.452Z,3.22
2022-08-20T23:53:23.738Z,1.85
2022-08-20T23:55:25.333Z,2.17
2022-08-20T23:57:26.940Z,3.42
2022-08-20T23:59:28.486Z,3.30
